Time;durP1;ratioP1;P1;durP2;ratioP2;P2;SDS_P1;SDS_P2;PMS_P1;PMS_P2;Temp;Humidity;BMP_temperature;BMP_pressure;BME280_temperature;BME280_humidity;BME280_pressure;Samples;Min_cycle;Max_cycle;Signal;HPM_P1;HPM_P2
2022/03/14 00:00:47;;;;;;;8.57;5.40;;;;;;;8.72;44.77;100064.25;5011310;28;20050;-68
2022/03/14 00:03:14;;;;;;;8.93;5.93;;;;;;;8.73;44.79;100055.38;4994957;28;20056;-70
2022/03/14 00:05:41;;;;;;;8.47;6.07;;;;;;;8.65;44.74;100022.56;5012804;28;20048;-68
2022/03/14 00:08:07;;;;;;;10.23;5.80;;;;;;;8.66;44.62;100030.38;5013490;28;20045;-68
2022/03/14 00:10:36;;;;;;;11.00;6.17;;;;;;;8.77;44.38;100050.59;4996949;28;20134;-68
2022/03/14 00:13:03;;;;;;;9.37;6.07;;;;;;;8.71;44.67;100049.34;4981160;28;20533;-68
2022/03/14 00:15:30;;;;;;;10.13;5.70;;;;;;;8.76;44.87;100041.84;5014433;28;20042;-69
2022/03/14 00:17:56;;;;;;;11.13;6.20;;;;;;;8.67;44.66;100031.22;4981081;28;20045;-69
2022/03/14 00:20:22;;;;;;;9.23;6.07;;;;;;;8.81;44.47;100042.25;4997229;28;20049;-74
2022/03/14 00:22:48;;;;;;;13.07;6.37;;;;;;;8.84;44.66;100047.28;4997212;28;20041;-69
2022/03/14 00:25:24;;;;;;;10.00;6.03;;;;;;;8.98;44.85;100043.41;4996947;28;20487;-68
2022/03/14 00:27:50;;;;;;;10.93;5.87;;;;;;;8.77;44.58;100046.16;5029960;28;20498;-68
2022/03/14 00:30:16;;;;;;;9.80;5.60;;;;;;;8.80;44.60;100050.34;4996704;28;20037;-68
2022/03/14 00:32:42;;;;;;;11.73;5.70;;;;;;;8.85;44.50;100048.13;4996556;28;20564;-69
2022/03/14 00:35:08;;;;;;;8.77;5.90;;;;;;;8.84;44.54;100046.47;5012889;28;20100;-68
2022/03/14 00:37:35;;;;;;;10.87;6.20;;;;;;;8.76;44.27;100027.75;4996596;28;20497;-68
2022/03/14 00:40:03;;;;;;;10.90;5.70;;;;;;;8.97;44.40;100045.22;5012917;28;20515;-68
2022/03/14 00:42:29;;;;;;;10.00;6.00;;;;;;;8.81;44.10;100047.53;4996554;28;20041;-68
2022/03/14 00:45:02;;;;;;;7.93;5.50;;;;;;;8.87;44.03;100043.53;4981210;28;20042;-68
2022/03/14 00:47:31;;;;;;;9.70;6.13;;;;;;;8.81;44.00;100052.03;5012772;28;20050;-68
2022/03/14 00:49:57;;;;;;;14.00;6.20;;;;;;;8.74;44.08;100043.78;4996581;28;20400;-68
2022/03/14 00:52:23;;;;;;;9.27;5.60;;;;;;;8.72;44.05;100051.00;4996563;28;20042;-67
2022/03/14 00:54:49;;;;;;;9.23;5.23;;;;;;;8.72;43.93;100053.66;5011173;28;20046;-68
2022/03/14 00:57:16;;;;;;;10.70;5.57;;;;;;;8.74;43.86;100040.28;4996174;28;20405;-68
2022/03/14 00:59:44;;;;;;;9.53;5.60;;;;;;;8.72;44.10;100047.56;5012452;28;20042;-68
2022/03/14 01:02:09;;;;;;;10.50;5.70;;;;;;;8.75;43.84;100045.44;4995987;28;20042;-67
2022/03/14 01:04:35;;;;;;;8.33;5.40;;;;;;;8.79;43.92;100048.66;5012345;28;20049;-68
2022/03/14 01:07:02;;;;;;;10.90;5.37;;;;;;;8.75;43.77;100050.75;4979656;28;20494;-67
2022/03/14 01:09:29;;;;;;;11.07;5.70;;;;;;;8.83;43.91;100042.09;4995800;28;20033;-69
2022/03/14 01:11:57;;;;;;;9.33;5.60;;;;;;;8.75;43.90;100028.75;5027542;28;20053;-69
2022/03/14 01:14:23;;;;;;;8.33;5.27;;;;;;;8.79;43.40;100038.06;5011098;28;20042;-68
2022/03/14 01:16:49;;;;;;;7.57;5.13;;;;;;;8.87;43.44;100039.06;4961160;28;20594;-68
2022/03/14 01:19:16;;;;;;;8.53;5.67;;;;;;;8.89;43.51;100028.34;4993579;28;20045;-69
2022/03/14 01:21:43;;;;;;;10.60;5.30;;;;;;;8.89;43.37;100031.00;4993730;28;20050;-69
2022/03/14 01:24:11;;;;;;;10.17;5.33;;;;;;;8.81;43.24;100023.72;5009847;28;20081;-68
2022/03/14 01:26:37;;;;;;;9.37;5.43;;;;;;;8.90;43.24;100038.81;4977191;28;20073;-69
2022/03/14 01:29:04;;;;;;;8.70;5.37;;;;;;;8.98;43.27;100035.47;5009629;28;20042;-70
2022/03/14 01:31:30;;;;;;;8.57;5.57;;;;;;;8.86;43.14;100005.59;4995334;28;20422;-68
2022/03/14 01:33:56;;;;;;;9.47;5.60;;;;;;;8.95;43.23;100028.59;5012199;28;20132;-68
2022/03/14 01:36:22;;;;;;;12.63;5.50;;;;;;;8.81;43.37;100005.16;5012026;28;20149;-68
2022/03/14 01:38:47;;;;;;;10.73;5.83;;;;;;;8.91;43.25;100034.31;4979094;28;20092;-68
2022/03/14 01:41:17;;;;;;;11.13;5.77;;;;;;;9.08;43.27;100037.13;5028083;28;20099;-68
2022/03/14 01:43:47;;;;;;;8.93;5.20;;;;;;;8.94;43.37;100045.50;4994031;28;20484;-69
2022/03/14 01:46:15;;;;;;;8.83;5.60;;;;;;;8.82;43.45;100032.50;4993641;28;20547;-70
2022/03/14 01:48:41;;;;;;;8.97;5.63;;;;;;;8.83;43.55;100040.31;5010561;28;20037;-69
2022/03/14 01:51:13;;;;;;;12.40;5.65;;;;;;;8.91;43.49;100032.53;4993765;28;20100;-70
2022/03/14 01:53:40;;;;;;;8.13;5.47;;;;;;;8.94;43.34;100039.34;5009179;28;20038;-70
2022/03/14 01:56:06;;;;;;;8.17;5.30;;;;;;;8.89;43.26;100047.69;5009590;28;20042;-69
2022/03/14 01:58:32;;;;;;;8.67;5.27;;;;;;;8.92;43.07;100043.97;4993886;28;20056;-69
2022/03/14 02:00:57;;;;;;;10.20;5.40;;;;;;;8.96;43.21;100046.19;4978864;28;20580;-68
2022/03/14 02:03:23;;;;;;;8.83;4.93;;;;;;;8.92;43.29;100058.03;4947167;28;20052;-68
2022/03/14 02:05:50;;;;;;;11.27;5.40;;;;;;;9.01;42.84;100051.09;5010431;28;20525;-69
2022/03/14 02:08:16;;;;;;;12.60;5.63;;;;;;;8.99;43.06;100060.97;5009010;28;20505;-69
2022/03/14 02:10:44;;;;;;;11.03;5.47;;;;;;;8.98;43.03;100051.34;5008954;28;20050;-69
2022/03/14 02:13:11;;;;;;;10.97;5.67;;;;;;;9.04;42.82;100042.84;5009968;28;20176;-71
2022/03/14 02:15:38;;;;;;;11.43;6.07;;;;;;;9.10;43.08;100048.41;4992555;28;20140;-70
2022/03/14 02:18:05;;;;;;;9.53;5.70;;;;;;;9.07;42.97;100048.69;5008415;28;20044;-70
2022/03/14 02:20:31;;;;;;;8.37;5.60;;;;;;;9.00;43.28;100041.44;4975968;28;20129;-70
2022/03/14 02:22:57;;;;;;;11.37;5.70;;;;;;;9.04;43.01;100053.44;5009434;28;20128;-70
2022/03/14 02:25:23;;;;;;;8.30;5.30;;;;;;;8.94;43.00;100034.03;4992834;28;20052;-68
2022/03/14 02:27:49;;;;;;;10.50;5.60;;;;;;;9.08;43.09;100050.38;4992749;28;20088;-69
2022/03/14 02:30:15;;;;;;;8.97;5.60;;;;;;;9.04;43.08;100048.97;5009005;28;20037;-70
2022/03/14 02:32:42;;;;;;;9.13;5.37;;;;;;;8.89;43.03;100025.69;5009603;28;20042;-69
2022/03/14 02:35:10;;;;;;;8.57;5.73;;;;;;;9.07;43.13;100059.28;5012008;28;20062;-68
2022/03/14 02:37:37;;;;;;;7.20;5.37;;;;;;;9.10;43.02;100059.00;5010920;28;20038;-68
2022/03/14 02:40:04;;;;;;;10.73;6.00;;;;;;;9.06;42.59;100044.38;4994445;28;20440;-68
2022/03/14 02:42:30;;;;;;;8.30;5.43;;;;;;;9.11;42.99;100065.16;4994427;28;20038;-72
2022/03/14 02:44:56;;;;;;;10.53;5.97;;;;;;;9.14;42.69;100054.28;4994327;28;20038;-68
2022/03/14 02:47:24;;;;;;;15.50;5.83;;;;;;;9.09;42.75;100062.66;5012098;28;20494;-68
2022/03/14 02:49:49;;;;;;;11.37;5.70;;;;;;;9.08;42.95;100065.44;4977920;28;20095;-68
2022/03/14 02:52:15;;;;;;;9.57;5.47;;;;;;;9.06;42.85;100075.31;5010159;28;20042;-69
2022/03/14 02:54:44;;;;;;;10.57;5.57;;;;;;;9.10;43.02;100069.59;5010395;28;20084;-68
2022/03/14 02:57:10;;;;;;;10.33;5.40;;;;;;;9.05;43.06;100071.00;4994199;28;20069;-68
2022/03/14 02:59:36;;;;;;;12.63;5.93;;;;;;;9.06;43.11;100075.31;5010001;28;20080;-68
2022/03/14 03:02:02;;;;;;;10.90;6.10;;;;;;;9.08;42.99;100076.88;4961801;28;20123;-71
2022/03/14 03:04:28;;;;;;;11.67;6.03;;;;;;;9.03;42.97;100070.31;5010514;28;20128;-68
2022/03/14 03:06:54;;;;;;;10.87;5.83;;;;;;;9.06;43.05;100076.16;4961610;28;20125;-68
2022/03/14 03:09:21;;;;;;;8.00;5.90;;;;;;;9.00;43.17;100063.47;4978037;28;20104;-68
2022/03/14 03:11:47;;;;;;;8.87;5.13;;;;;;;9.09;43.07;100073.25;5010043;28;20065;-68
2022/03/14 03:14:16;;;;;;;10.77;5.87;;;;;;;9.07;43.24;100077.84;5010000;28;20069;-68
2022/03/14 03:16:42;;;;;;;11.90;5.97;;;;;;;9.08;43.08;100063.63;5011174;28;20445;-68
2022/03/14 03:19:09;;;;;;;9.70;5.93;;;;;;;9.07;43.51;100067.25;5009762;28;20516;-68
2022/03/14 03:21:39;;;;;;;9.53;5.90;;;;;;;9.12;43.23;100067.66;4977316;28;20046;-69
2022/03/14 03:24:07;;;;;;;9.65;5.95;;;;;;;9.23;43.13;100069.34;5009254;28;20148;-69
2022/03/14 03:26:38;;;;;;;10.43;5.90;;;;;;;9.26;43.24;100074.38;4961543;28;20100;-73
2022/03/14 03:29:06;;;;;;;8.85;5.57;;;;;;;9.30;43.11;100070.47;4977537;28;20139;-69
2022/03/14 03:31:32;;;;;;;8.00;5.80;;;;;;;9.19;42.85;100063.50;4993064;28;20050;-69
2022/03/14 03:33:58;;;;;;;11.60;5.80;;;;;;;9.23;43.05;100069.34;4977373;28;20048;-69
2022/03/14 03:36:23;;;;;;;8.37;5.87;;;;;;;9.12;42.98;100046.47;5009855;28;20174;-68
2022/03/14 03:38:49;;;;;;;11.50;5.27;;;;;;;9.25;42.94;100067.41;5009669;28;20048;-68
2022/03/14 03:41:17;;;;;;;12.87;6.20;;;;;;;9.31;42.59;100069.50;5011042;28;20057;-68
2022/03/14 03:43:43;;;;;;;10.90;5.83;;;;;;;9.31;42.57;100075.63;4960933;28;20053;-69
2022/03/14 03:46:09;;;;;;;11.27;6.00;;;;;;;9.30;42.69;100073.94;4976955;28;20089;-68
2022/03/14 03:48:34;;;;;;;9.07;6.13;;;;;;;9.27;42.77;100071.56;5009607;28;20049;-71
2022/03/14 03:51:01;;;;;;;11.23;5.93;;;;;;;9.23;42.68;100075.50;5011068;28;20042;-69
2022/03/14 03:53:26;;;;;;;11.27;6.03;;;;;;;9.31;42.64;100074.78;5009802;28;20041;-69
2022/03/14 03:55:52;;;;;;;11.37;6.73;;;;;;;9.28;42.73;100077.72;4993099;28;20116;-68
2022/03/14 03:58:19;;;;;;;11.07;5.97;;;;;;;9.36;42.66;100081.38;4977271;28;20038;-68
2022/03/14 04:00:45;;;;;;;12.17;6.50;;;;;;;9.38;42.62;100090.00;5009370;28;20045;-68
2022/03/14 04:03:11;;;;;;;8.93;6.17;;;;;;;9.44;42.68;100086.78;4961174;28;20045;-69
2022/03/14 04:05:39;;;;;;;12.53;6.80;;;;;;;9.40;42.59;100088.06;4993206;28;20494;-69
2022/03/14 04:08:11;;;;;;;12.00;6.90;;;;;;;9.59;42.26;100090.72;5009631;28;20049;-73
2022/03/14 04:10:38;;;;;;;8.93;6.40;;;;;;;9.47;42.46;100093.66;5009397;28;20042;-69
2022/03/14 04:13:06;;;;;;;13.50;7.20;;;;;;;9.42;42.45;100091.41;5009583;28;20057;-69
2022/03/14 04:15:52;;;;;;;11.87;7.30;;;;;;;9.52;42.59;100091.38;4993265;28;20034;-68
2022/03/14 04:18:19;;;;;;;12.67;7.20;;;;;;;9.47;42.69;100089.16;4960841;28;20053;-67
2022/03/14 04:20:47;;;;;;;14.97;7.73;;;;;;;9.53;42.56;100104.50;4993049;28;20046;-72
2022/03/14 04:23:13;;;;;;;14.83;7.63;;;;;;;9.37;42.70;100093.63;4993182;28;20049;-71
2022/03/14 04:25:39;;;;;;;13.10;7.70;;;;;;;9.38;42.77;100089.19;4953433;28;20086;-72
2022/03/14 04:28:07;;;;;;;16.17;8.38;;;;;;;9.34;42.85;100088.63;4992699;28;20095;-71
2022/03/14 04:31:02;;;;;;;13.17;8.37;;;;;;;9.62;42.92;100097.53;4988024;28;20125;-71
2022/03/14 04:33:27;;;;;;;14.90;8.60;;;;;;;9.39;43.01;100096.16;4985453;28;20041;-70
2022/03/14 04:35:53;;;;;;;12.87;8.33;;;;;;;9.37;43.00;100100.75;4996444;28;20066;-70
2022/03/14 04:38:19;;;;;;;14.03;8.33;;;;;;;9.45;43.03;100100.88;4984009;28;20042;-71
2022/03/14 04:40:46;;;;;;;14.23;8.50;;;;;;;9.50;42.79;100098.66;4981673;28;20029;-68
2022/03/14 04:43:12;;;;;;;17.70;8.63;;;;;;;9.57;42.56;100100.59;4997450;28;20516;-69
2022/03/14 04:45:38;;;;;;;16.33;9.30;;;;;;;9.45;42.76;100082.34;5001211;28;20050;-68
2022/03/14 04:48:05;;;;;;;18.87;9.20;;;;;;;9.68;42.40;100103.13;5001680;28;20068;-67
2022/03/14 04:50:32;;;;;;;17.50;8.77;;;;;;;9.63;42.46;100093.91;4989659;28;20045;-69
2022/03/14 04:52:58;;;;;;;15.73;8.53;;;;;;;9.61;42.25;100078.13;5000159;28;20042;-69
2022/03/14 04:55:24;;;;;;;20.63;9.47;;;;;;;9.77;42.31;100106.72;4950294;28;20043;-69
2022/03/14 04:57:50;;;;;;;16.50;9.10;;;;;;;9.76;42.16;100105.88;4983284;28;20041;-69
2022/03/14 05:00:17;;;;;;;14.73;9.23;;;;;;;9.79;42.30;100107.44;5011668;28;20045;-69
2022/03/14 05:02:43;;;;;;;15.87;9.33;;;;;;;9.79;42.34;100100.28;5010774;28;20066;-68
2022/03/14 05:05:12;;;;;;;17.70;9.75;;;;;;;9.78;42.30;100105.75;4994165;28;20049;-69
2022/03/14 05:07:40;;;;;;;16.93;9.97;;;;;;;9.60;42.57;100084.41;4995367;28;20078;-67
2022/03/14 05:10:11;;;;;;;18.40;9.82;;;;;;;9.70;42.39;100087.06;4995531;28;20703;-68
2022/03/14 05:12:39;;;;;;;19.60;10.30;;;;;;;9.79;42.38;100110.09;4993991;28;20046;-69
2022/03/14 05:15:05;;;;;;;19.65;10.32;;;;;;;9.93;41.88;100110.47;5011398;28;20034;-68
2022/03/14 05:17:31;;;;;;;16.33;9.82;;;;;;;9.87;42.36;100112.88;5011519;28;20038;-71
2022/03/14 05:19:57;;;;;;;17.30;10.43;;;;;;;10.01;42.13;100113.25;4993203;28;20042;-71
2022/03/14 05:22:23;;;;;;;17.23;10.20;;;;;;;10.07;41.89;100110.06;5010627;28;20042;-70
2022/03/14 05:24:50;;;;;;;18.45;10.38;;;;;;;10.13;41.80;100113.97;4993700;28;20141;-71
2022/03/14 05:27:17;;;;;;;17.85;10.15;;;;;;;10.17;41.54;100125.97;4998829;28;20629;-71
2022/03/14 05:29:42;;;;;;;19.95;10.50;;;;;;;10.21;41.64;100132.66;5009971;28;20057;-69
2022/03/14 05:32:08;;;;;;;17.55;9.68;;;;;;;10.24;41.16;100129.69;4992104;28;20079;-70
2022/03/14 05:34:35;;;;;;;19.92;10.25;;;;;;;10.18;41.40;100120.50;4993369;28;20077;-70
2022/03/14 05:37:04;;;;;;;17.58;9.98;;;;;;;10.23;41.50;100133.34;5010816;28;20171;-69
2022/03/14 05:39:30;;;;;;;17.75;9.45;;;;;;;10.14;41.41;100129.75;5011958;28;20050;-71
2022/03/14 05:41:56;;;;;;;15.82;8.85;;;;;;;10.08;41.43;100130.31;4994343;28;20053;-70
2022/03/14 05:44:22;;;;;;;19.95;10.00;;;;;;;10.06;41.72;100128.75;4961748;28;20048;-69
2022/03/14 05:46:47;;;;;;;19.10;10.27;;;;;;;10.01;41.78;100134.47;4962266;28;20056;-70
2022/03/14 05:49:13;;;;;;;16.33;9.43;;;;;;;10.05;41.64;100125.28;4977856;28;20069;-71
2022/03/14 05:51:42;;;;;;;17.20;10.13;;;;;;;10.18;41.47;100123.16;4978021;28;20132;-72
2022/03/14 05:54:08;;;;;;;15.55;9.02;;;;;;;10.07;41.51;100125.97;4993620;28;20046;-71
2022/03/14 05:56:34;;;;;;;17.98;8.93;;;;;;;9.94;41.35;100109.50;4993616;28;20069;-69
2022/03/14 05:59:00;;;;;;;14.68;7.65;;;;;;;10.03;41.06;100134.34;4994165;28;20042;-69
2022/03/14 06:01:26;;;;;;;15.70;7.68;;;;;;;9.98;40.83;100133.91;4977689;28;20049;-69
2022/03/14 06:03:53;;;;;;;12.18;7.18;;;;;;;9.99;40.38;100136.44;5009939;28;20046;-68
2022/03/14 06:06:18;;;;;;;11.13;6.63;;;;;;;9.97;40.09;100134.91;4961837;28;20140;-69
2022/03/14 06:08:45;;;;;;;14.20;6.57;;;;;;;10.02;39.79;100138.78;4994009;28;20129;-69
2022/03/14 06:11:11;;;;;;;16.27;6.70;;;;;;;10.08;39.36;100135.63;5009732;28;20521;-70
2022/03/14 06:13:37;;;;;;;10.23;6.40;;;;;;;10.18;39.15;100148.84;5009312;28;20041;-68
2022/03/14 06:16:03;;;;;;;13.65;6.43;;;;;;;10.31;38.94;100145.91;4977976;28;20409;-69
2022/03/14 06:18:32;;;;;;;12.63;5.93;;;;;;;10.48;38.42;100150.47;4993756;28;20056;-70
2022/03/14 06:20:57;;;;;;;8.48;5.88;;;;;;;10.48;38.28;100132.72;5010296;28;20196;-71
2022/03/14 06:23:23;;;;;;;10.85;5.65;;;;;;;10.68;37.28;100152.06;4993178;28;20564;-71
2022/03/14 06:25:50;;;;;;;8.38;5.20;;;;;;;10.78;37.35;100139.59;4994111;28;20046;-69
2022/03/14 06:28:16;;;;;;;7.97;5.20;;;;;;;11.04;36.47;100146.72;5000870;28;20038;-69
2022/03/14 06:30:42;;;;;;;9.88;5.03;;;;;;;11.16;35.92;100142.03;5009884;28;20520;-71
2022/03/14 06:33:08;;;;;;;13.68;6.30;;;;;;;11.18;35.94;100140.03;5009478;28;20053;-67
2022/03/14 06:35:35;;;;;;;12.85;6.05;;;;;;;11.18;35.88;100143.53;4993293;28;20532;-69
2022/03/14 06:38:04;;;;;;;8.57;5.90;;;;;;;11.29;35.64;100148.66;5009679;28;20064;-69
2022/03/14 06:40:30;;;;;;;12.57;5.93;;;;;;;11.30;35.63;100157.47;4977452;28;20069;-72
2022/03/14 06:42:57;;;;;;;9.73;5.32;;;;;;;11.46;34.96;100160.28;5010838;28;20421;-71
2022/03/14 06:45:23;;;;;;;10.15;5.80;;;;;;;11.55;34.65;100164.69;5009224;28;20505;-71
2022/03/14 06:47:52;;;;;;;10.27;5.07;;;;;;;11.86;34.42;100169.53;5009764;28;20173;-70
2022/03/14 06:50:18;;;;;;;9.30;4.82;;;;;;;11.96;33.90;100169.47;4993347;28;20041;-71
2022/03/14 06:52:44;;;;;;;7.03;4.43;;;;;;;12.13;33.05;100171.22;5009057;28;20041;-71
2022/03/14 06:55:10;;;;;;;10.00;4.85;;;;;;;12.27;32.44;100170.69;4993065;28;20460;-69
2022/03/14 06:57:38;;;;;;;8.25;4.30;;;;;;;12.50;31.71;100169.16;4993595;28;20073;-70
2022/03/14 07:00:05;;;;;;;10.38;4.00;;;;;;;12.58;30.88;100168.38;5011194;28;20498;-72
2022/03/14 07:02:31;;;;;;;9.63;3.80;;;;;;;12.53;30.38;100176.03;5009501;28;20049;-72
2022/03/14 07:04:58;;;;;;;7.18;3.70;;;;;;;12.26;29.67;100150.38;5009301;28;20050;-71
2022/03/14 07:07:24;;;;;;;5.18;2.70;;;;;;;12.04;28.66;100166.84;5008956;28;20114;-71
2022/03/14 07:09:49;;;;;;;4.22;2.05;;;;;;;11.78;28.18;100168.63;5008870;28;20049;-71
2022/03/14 07:12:15;;;;;;;4.20;2.25;;;;;;;11.59;28.11;100172.22;5008070;28;20833;-71
2022/03/14 07:14:41;;;;;;;6.07;2.60;;;;;;;11.44;28.07;100167.59;4976449;28;20045;-69
2022/03/14 07:17:07;;;;;;;6.18;2.88;;;;;;;11.43;28.27;100165.91;5008881;28;20489;-69
2022/03/14 07:19:34;;;;;;;6.32;2.35;;;;;;;11.57;28.22;100165.41;4992410;28;20046;-69
2022/03/14 07:22:03;;;;;;;4.10;2.47;;;;;;;11.70;28.22;100163.25;5008742;28;20046;-70
2022/03/14 07:24:29;;;;;;;4.75;2.33;;;;;;;11.69;27.43;100158.88;5008469;28;21028;-70
2022/03/14 07:26:55;;;;;;;5.00;2.63;;;;;;;11.68;26.92;100152.75;5008747;28;20128;-70
2022/03/14 07:29:20;;;;;;;5.35;2.25;;;;;;;11.76;26.48;100166.09;5008920;28;20371;-70
2022/03/14 07:31:46;;;;;;;5.00;2.10;;;;;;;11.78;26.28;100142.00;4976295;28;20086;-69
2022/03/14 07:34:12;;;;;;;4.32;2.17;;;;;;;12.14;26.11;100158.75;4975888;28;20049;-70
2022/03/14 07:36:42;;;;;;;3.60;2.03;;;;;;;12.58;25.46;100160.38;5009986;28;20081;-72
2022/03/14 07:39:08;;;;;;;5.72;2.08;;;;;;;13.93;24.03;100159.16;5008880;28;20081;-71
2022/03/14 07:41:36;;;;;;;5.57;2.60;;;;;;;14.90;22.67;100159.84;5008530;28;20591;-69
2022/03/14 07:44:03;;;;;;;8.57;2.33;;;;;;;15.40;21.87;100165.69;4992465;28;20564;-70
2022/03/14 07:46:29;;;;;;;4.90;2.60;;;;;;;15.77;21.83;100160.44;5008142;28;20202;-71
2022/03/14 07:48:55;;;;;;;8.10;2.30;;;;;;;15.90;21.02;100155.28;4992376;28;20184;-71
2022/03/14 07:51:21;;;;;;;9.57;2.28;;;;;;;16.25;20.68;100159.19;4976079;28;20046;-71
2022/03/14 07:53:47;;;;;;;5.97;2.20;;;;;;;16.26;20.22;100159.00;4992308;28;20045;-71
2022/03/14 07:56:13;;;;;;;6.32;2.08;;;;;;;16.79;19.66;100157.97;4975705;28;20050;-71
2022/03/14 07:58:41;;;;;;;7.15;2.58;;;;;;;17.07;19.09;100160.84;4976720;28;20048;-67
2022/03/14 08:01:07;;;;;;;4.78;2.33;;;;;;;17.13;19.02;100158.22;4992215;28;20052;-72
2022/03/14 08:03:33;;;;;;;5.00;2.47;;;;;;;17.44;18.83;100158.00;5008464;28;20053;-71
2022/03/14 08:06:00;;;;;;;7.20;2.20;;;;;;;18.03;18.07;100152.25;5009289;28;20857;-71
2022/03/14 08:08:28;;;;;;;7.30;2.28;;;;;;;18.28;17.69;100156.16;5008333;28;20072;-70
2022/03/14 08:11:01;;;;;;;5.43;2.45;;;;;;;18.55;17.44;100154.53;4991915;28;20049;-71
2022/03/14 08:13:27;;;;;;;4.13;2.40;;;;;;;18.97;17.04;100153.56;4944353;28;20096;-70
2022/03/14 08:15:53;;;;;;;7.00;2.50;;;;;;;19.02;16.93;100137.66;5008492;28;20050;-72
2022/03/14 08:18:19;;;;;;;6.65;2.22;;;;;;;20.50;15.73;100153.50;4993156;28;20034;-71
2022/03/14 08:20:44;;;;;;;10.05;2.90;;;;;;;21.60;15.08;100155.06;4963977;28;20038;-70
2022/03/14 08:23:13;;;;;;;9.75;4.38;;;;;;;21.83;14.69;100160.78;5011902;28;20505;-71
2022/03/14 08:25:39;;;;;;;6.80;2.97;;;;;;;21.26;14.84;100163.53;5012624;28;20516;-71
2022/03/14 08:28:04;;;;;;;6.20;2.88;;;;;;;20.51;15.67;100144.41;4980462;28;20076;-72
2022/03/14 08:30:30;;;;;;;5.80;2.72;;;;;;;19.99;15.79;100150.56;4995866;28;20046;-70
2022/03/14 08:32:57;;;;;;;5.60;2.38;;;;;;;19.46;16.25;100164.97;5011682;28;20045;-70
2022/03/14 08:35:24;;;;;;;11.05;2.60;;;;;;;19.13;16.53;100121.72;4978791;28;20053;-71
2022/03/14 08:37:52;;;;;;;8.40;3.28;;;;;;;19.96;16.22;100141.03;5011672;28;20068;-71
2022/03/14 08:40:23;;;;;;;7.93;3.20;;;;;;;20.43;15.74;100139.22;4995668;28;20050;-71
2022/03/14 08:42:50;;;;;;;9.57;2.75;;;;;;;20.40;15.62;100132.38;5011603;28;20378;-70
2022/03/14 08:45:17;;;;;;;6.50;2.53;;;;;;;20.43;15.23;100125.72;4961981;28;20176;-71
2022/03/14 08:47:43;;;;;;;6.97;2.58;;;;;;;20.36;15.59;100149.19;4995563;28;20049;-71
2022/03/14 08:50:11;;;;;;;5.15;2.42;;;;;;;20.60;15.45;100135.03;4995762;28;20057;-70
2022/03/14 08:52:37;;;;;;;7.13;2.13;;;;;;;20.84;14.87;100137.88;4979561;28;20049;-71
2022/03/14 08:55:04;;;;;;;5.70;2.30;;;;;;;21.68;13.96;100120.47;4995341;28;20049;-71
2022/03/14 08:57:30;;;;;;;5.78;2.50;;;;;;;22.25;13.71;100138.41;5010620;28;20068;-71
2022/03/14 08:59:56;;;;;;;4.85;2.33;;;;;;;22.90;12.80;100137.78;4995469;28;20045;-71
2022/03/14 09:02:21;;;;;;;7.05;1.90;;;;;;;23.18;12.73;100138.09;4979646;28;20046;-71
2022/03/14 09:04:47;;;;;;;8.10;2.28;;;;;;;23.66;12.02;100104.72;4979940;28;20088;-71
2022/03/14 09:07:24;;;;;;;5.50;2.20;;;;;;;23.83;11.89;100133.69;5011781;28;20099;-71
2022/03/14 09:09:50;;;;;;;5.35;2.38;;;;;;;23.95;11.82;100131.84;4978973;28;20041;-72
2022/03/14 09:12:15;;;;;;;3.03;1.98;;;;;;;23.90;12.08;100134.41;4994517;28;20413;-70
2022/03/14 09:14:41;;;;;;;4.35;2.13;;;;;;;24.45;11.86;100134.97;4962359;28;20046;-70
2022/03/14 09:17:07;;;;;;;8.50;2.10;;;;;;;24.99;11.30;100134.63;4994996;28;20080;-71
2022/03/14 09:19:34;;;;;;;4.70;2.22;;;;;;;26.00;10.41;100134.78;5011997;28;20064;-71
2022/03/14 09:22:01;;;;;;;4.95;2.35;;;;;;;27.44;9.61;100135.31;4994813;28;20486;-70
2022/03/14 09:24:27;;;;;;;6.35;1.92;;;;;;;28.29;9.06;100132.63;5011318;28;20045;-71
2022/03/14 09:26:55;;;;;;;3.22;1.70;;;;;;;28.34;8.65;100127.19;4994624;28;20056;-71
2022/03/14 09:29:22;;;;;;;4.40;2.10;;;;;;;29.19;8.67;100127.78;4977629;28;20042;-71
2022/03/14 09:31:49;;;;;;;7.60;2.20;;;;;;;31.45;7.25;100130.53;5010291;28;20460;-70
2022/03/14 09:34:15;;;;;;;6.18;2.10;;;;;;;33.18;6.16;100121.41;4978149;28;20073;-71
2022/03/14 09:36:41;;;;;;;6.38;2.33;;;;;;;33.50;5.95;100119.63;4961679;28;20061;-70
2022/03/14 09:39:12;;;;;;;7.38;2.20;;;;;;;33.05;5.54;100117.41;4994534;28;20041;-71
2022/03/14 09:41:39;;;;;;;5.57;2.00;;;;;;;32.27;6.18;100122.31;4978509;28;20413;-71
2022/03/14 09:44:11;;;;;;;5.63;2.15;;;;;;;30.45;6.77;100125.28;5010830;28;20037;-71
2022/03/14 09:46:39;;;;;;;8.13;2.30;;;;;;;28.49;8.09;100118.31;5010650;28;20154;-71
2022/03/14 09:49:09;;;;;;;7.57;2.25;;;;;;;28.45;8.38;100108.94;4994167;28;20441;-71
2022/03/14 09:51:39;;;;;;;4.38;2.10;;;;;;;30.30;7.46;100114.34;5009870;28;20056;-71
2022/03/14 09:54:09;;;;;;;6.22;2.10;;;;;;;32.76;6.32;100119.38;4994553;28;20042;-71
2022/03/14 09:56:42;;;;;;;4.22;2.00;;;;;;;34.92;4.92;100122.53;4994481;28;20042;-71
2022/03/14 09:59:14;;;;;;;5.40;2.08;;;;;;;36.44;4.43;100115.25;4978375;28;20045;-71
2022/03/14 10:01:41;;;;;;;3.63;2.15;;;;;;;37.70;3.61;100110.53;4995053;28;20552;-69
2022/03/14 10:04:08;;;;;;;5.93;2.08;;;;;;;38.24;3.86;100107.09;4994569;28;20050;-72
2022/03/14 10:06:35;;;;;;;3.08;1.90;;;;;;;39.25;3.04;100106.28;4994394;28;20590;-71
2022/03/14 10:09:03;;;;;;;3.78;1.67;;;;;;;39.51;3.10;100104.16;4977919;28;20132;-71
2022/03/14 10:11:28;;;;;;;7.15;2.10;;;;;;;39.39;2.99;100104.88;5010207;28;20181;-70
2022/03/14 10:13:54;;;;;;;4.60;1.95;;;;;;;39.58;3.14;100093.34;4993717;28;20591;-71
2022/03/14 10:16:20;;;;;;;5.47;2.25;;;;;;;39.74;2.38;100099.91;4994020;28;20100;-71
2022/03/14 10:18:56;;;;;;;9.38;2.08;;;;;;;39.85;2.34;100087.25;4994057;28;20522;-71
2022/03/14 10:21:35;;;;;;;8.07;2.28;;;;;;;40.26;2.20;100103.88;4993820;28;20191;-71
2022/03/14 10:24:05;;;;;;;6.10;1.88;;;;;;;40.58;2.04;100089.13;4977769;28;20038;-72
2022/03/14 10:26:33;;;;;;;4.05;1.80;;;;;;;39.93;2.55;100103.88;4994052;28;20069;-73
2022/03/14 10:29:00;;;;;;;9.15;2.38;;;;;;;37.91;2.89;100100.41;4977934;28;20077;-72
2022/03/14 10:31:31;;;;;;;4.68;2.08;;;;;;;35.78;3.81;100082.00;4961718;28;20042;-71
2022/03/14 10:34:17;;;;;;;7.03;2.17;;;;;;;34.31;4.18;100079.75;4993568;28;20042;-70
2022/03/14 10:36:49;;;;;;;8.35;3.22;;;;;;;32.17;5.36;100078.38;4993230;28;20050;-71
2022/03/14 10:39:18;;;;;;;9.23;3.30;;;;;;;31.22;5.97;100078.16;5010315;28;20045;-72
2022/03/14 10:42:08;;;;;;;6.10;2.80;;;;;;;32.35;5.50;100080.44;5010218;28;20487;-70
2022/03/14 10:44:35;;;;;;;6.68;2.60;;;;;;;32.45;5.52;100071.28;5008884;28;20069;-71
2022/03/14 10:47:03;;;;;;;11.43;2.90;;;;;;;31.82;5.79;100073.16;4977095;28;20100;-72
2022/03/14 10:49:31;;;;;;;8.18;2.88;;;;;;;30.21;6.56;100064.75;4993204;28;20071;-71
2022/03/14 10:52:07;;;;;;;5.60;2.70;;;;;;;30.63;6.44;100073.44;4993167;28;20077;-72
2022/03/14 10:54:43;;;;;;;7.22;2.78;;;;;;;31.06;6.30;100060.97;4963600;28;20108;-71
2022/03/14 10:57:18;;;;;;;8.00;3.30;;;;;;;32.47;5.66;100060.81;5012764;28;20092;-73
2022/03/14 10:59:47;;;;;;;7.07;3.13;;;;;;;33.68;5.04;100071.13;4960567;28;20547;-73
2022/03/14 11:02:20;;;;;;;4.57;2.30;;;;;;;34.39;4.50;100068.88;4979561;28;20158;-71
2022/03/14 11:04:59;;;;;;;6.13;2.80;;;;;;;35.43;4.37;100065.13;4993494;28;20089;-72
2022/03/14 11:07:28;;;;;;;5.05;2.15;;;;;;;36.30;3.62;100061.94;4992903;28;20049;-70
2022/03/14 11:09:56;;;;;;;7.82;2.15;;;;;;;36.83;2.99;100055.19;5008768;28;20046;-72
2022/03/14 11:12:23;;;;;;;5.28;2.05;;;;;;;37.35;3.13;100061.69;4992348;28;20046;-70
2022/03/14 11:14:53;;;;;;;2.58;2.03;;;;;;;37.21;3.26;100066.59;4992814;28;20053;-70
2022/03/14 11:17:21;;;;;;;4.30;2.20;;;;;;;37.35;3.45;100067.25;4959965;28;20058;-70
2022/03/14 11:19:48;;;;;;;3.90;2.17;;;;;;;37.49;3.41;100067.91;4992174;28;20081;-71
2022/03/14 11:22:16;;;;;;;4.75;2.35;;;;;;;37.27;3.42;100068.06;5008838;28;20466;-71
2022/03/14 11:24:46;;;;;;;4.82;2.17;;;;;;;36.66;3.32;100060.66;4992204;28;20042;-71
2022/03/14 11:27:26;;;;;;;4.88;2.35;;;;;;;35.76;3.75;100062.97;5008392;28;20052;-71